Time;durP1;ratioP1;P1;durP2;ratioP2;P2;SDS_P1;SDS_P2;PMS_P1;PMS_P2;Temp;Humidity;BMP_temperature;BMP_pressure;BME280_temperature;BME280_humidity;BME280_pressure;Samples;Min_cycle;Max_cycle;Signal;HPM_P1;HPM_P2
2024/02/25 00:00:50;0.00;0.00;0.62;0.00;0.00;0.62;1.70;1.13;;;22.30;24.40;;;;;;2250916;61;20386;-67
2024/02/25 00:03:34;0.00;0.00;0.62;0.00;0.00;0.62;2.13;1.60;;;22.30;24.40;;;;;;2251005;61;20908;-67
2024/02/25 00:06:19;0.00;0.00;0.62;0.00;0.00;0.62;2.13;1.20;;;22.30;24.40;;;;;;2251313;61;20371;-67
2024/02/25 00:09:07;0.00;0.00;0.62;0.00;0.00;0.62;1.80;1.10;;;22.30;24.40;;;;;;2251528;61;20378;-67
2024/02/25 00:11:51;0.00;0.00;0.62;0.00;0.00;0.62;2.00;1.27;;;22.30;24.50;;;;;;2250820;61;20406;-67
2024/02/25 00:14:37;0.00;0.00;0.62;0.00;0.00;0.62;2.07;1.10;;;22.30;24.50;;;;;;2251474;61;20770;-68
2024/02/25 00:17:22;0.00;0.00;0.62;0.00;0.00;0.62;1.77;0.90;;;22.30;24.50;;;;;;2251049;61;20495;-67
2024/02/25 00:20:08;0.00;0.00;0.62;0.00;0.00;0.62;1.90;1.20;;;22.30;24.50;;;;;;2251186;61;20369;-67
2024/02/25 00:22:54;0.00;0.00;0.62;0.00;0.00;0.62;1.70;1.07;;;22.30;24.50;;;;;;2251356;61;20387;-68
2024/02/25 00:25:40;0.00;0.00;0.62;0.00;0.00;0.62;1.80;1.30;;;22.30;24.50;;;;;;2250897;61;20369;-67
2024/02/25 00:28:25;0.00;0.00;0.62;0.00;0.00;0.62;1.90;1.00;;;22.30;24.50;;;;;;2251266;61;20367;-67
2024/02/25 00:31:10;0.00;0.00;0.62;0.00;0.00;0.62;1.73;1.00;;;22.30;24.50;;;;;;2250914;61;20401;-67
2024/02/25 00:33:54;0.00;0.00;0.62;0.00;0.00;0.62;1.73;1.10;;;22.30;24.50;;;;;;2250882;61;20390;-67
2024/02/25 00:36:39;0.00;0.00;0.62;0.00;0.00;0.62;1.83;1.07;;;22.20;24.40;;;;;;2250794;61;20379;-68
2024/02/25 00:39:24;0.00;0.00;0.62;0.00;0.00;0.62;2.67;1.07;;;22.30;24.50;;;;;;2251183;61;20954;-67
2024/02/25 00:42:11;0.00;0.00;0.62;0.00;0.00;0.62;1.70;0.80;;;22.20;24.40;;;;;;2251132;61;20470;-67
2024/02/25 00:44:56;0.00;0.00;0.62;0.00;0.00;0.62;1.77;1.10;;;22.20;24.40;;;;;;2251341;61;20421;-68
2024/02/25 00:47:41;0.00;0.00;0.62;0.00;0.00;0.62;1.60;1.00;;;22.20;24.40;;;;;;2253500;61;20433;-67
2024/02/25 00:50:26;0.00;0.00;0.62;0.00;0.00;0.62;1.70;0.90;;;22.20;24.40;;;;;;2255304;61;20513;-67
2024/02/25 00:53:11;0.00;0.00;0.62;0.00;0.00;0.62;1.67;1.03;;;22.20;24.40;;;;;;2255327;61;20405;-67
2024/02/25 00:55:56;0.00;0.00;0.62;0.00;0.00;0.62;1.80;0.97;;;22.20;24.40;;;;;;2254831;61;20810;-67
2024/02/25 00:58:42;0.00;0.00;0.62;0.00;0.00;0.62;2.07;1.20;;;22.20;24.40;;;;;;2255472;61;20794;-67
2024/02/25 01:01:26;0.00;0.00;0.62;0.00;0.00;0.62;1.57;0.77;;;22.20;24.40;;;;;;2255283;61;20397;-67
2024/02/25 01:04:11;0.00;0.00;0.62;0.00;0.00;0.62;1.80;1.00;;;22.20;24.40;;;;;;2255114;61;20393;-67
2024/02/25 01:06:55;0.00;0.00;0.62;0.00;0.00;0.62;1.90;1.03;;;22.20;24.40;;;;;;2255380;61;20497;-67
2024/02/25 01:09:40;0.00;0.00;0.62;0.00;0.00;0.62;1.70;1.00;;;22.20;24.30;;;;;;2255185;61;20393;-67
2024/02/25 01:12:24;0.00;0.00;0.62;0.00;0.00;0.62;2.00;1.20;;;22.20;24.30;;;;;;2255218;61;20444;-67
2024/02/25 01:15:10;0.00;0.00;0.62;0.00;0.00;0.62;2.20;1.27;;;22.20;24.30;;;;;;2255253;61;20366;-67
2024/02/25 01:17:55;0.00;0.00;0.62;0.00;0.00;0.62;1.87;0.93;;;22.20;24.30;;;;;;2254694;61;20366;-67
2024/02/25 01:20:40;0.00;0.00;0.62;0.00;0.00;0.62;2.00;1.00;;;22.20;24.30;;;;;;2255375;61;20370;-67
2024/02/25 01:23:24;0.00;0.00;0.62;0.00;0.00;0.62;1.60;0.90;;;22.20;24.30;;;;;;2254965;61;20385;-68
2024/02/25 01:26:10;0.00;0.00;0.62;0.00;0.00;0.62;1.80;1.00;;;22.20;24.30;;;;;;2254907;61;20377;-68
2024/02/25 01:28:54;0.00;0.00;0.62;0.00;0.00;0.62;1.70;1.00;;;22.20;24.30;;;;;;2255057;61;20785;-67
2024/02/25 01:31:44;0.00;0.00;0.62;0.00;0.00;0.62;1.70;1.10;;;22.20;24.30;;;;;;2254975;61;20526;-67
2024/02/25 01:34:29;0.00;0.00;0.62;0.00;0.00;0.62;1.80;1.00;;;22.20;24.30;;;;;;2255073;61;20892;-67
2024/02/25 01:37:15;0.00;0.00;0.62;0.00;0.00;0.62;1.97;1.00;;;22.20;24.20;;;;;;2255088;61;20789;-69
2024/02/25 01:39:59;0.00;0.00;0.62;0.00;0.00;0.62;1.73;0.90;;;22.20;24.20;;;;;;2254863;61;20469;-69
2024/02/25 01:42:44;0.00;0.00;0.62;0.00;0.00;0.62;1.60;0.80;;;22.20;24.20;;;;;;2255318;61;20393;-68
2024/02/25 01:45:29;0.00;0.00;0.62;0.00;0.00;0.62;1.63;1.10;;;22.20;24.20;;;;;;2256058;61;20450;-68
2024/02/25 01:48:19;0.00;0.00;0.62;0.00;0.00;0.62;1.97;1.00;;;22.20;24.20;;;;;;2255559;61;20503;-68
2024/02/25 01:51:04;0.00;0.00;0.62;0.00;0.00;0.62;2.43;1.50;;;22.20;24.80;;;;;;2255865;61;20374;-68
2024/02/25 01:53:50;0.00;0.00;0.62;0.00;0.00;0.62;1.83;0.97;;;22.10;24.20;;;;;;2254889;61;20404;-69
2024/02/25 01:56:35;0.00;0.00;0.62;0.00;0.00;0.62;3.33;1.00;;;22.10;24.20;;;;;;2569566;45;20369;-68
2024/02/25 01:59:20;0.00;0.00;0.62;0.00;0.00;0.62;1.80;0.90;;;22.10;24.20;;;;;;2255820;61;20794;-68
2024/02/25 02:02:13;0.00;0.00;0.62;0.00;0.00;0.62;1.83;0.90;;;22.20;24.20;;;;;;2254593;61;20468;-68
2024/02/25 02:04:59;0.00;0.00;0.62;0.00;0.00;0.62;1.53;1.00;;;22.10;24.20;;;;;;2255718;61;20424;-68
2024/02/25 02:07:47;0.00;0.00;0.62;0.00;0.00;0.62;1.67;0.83;;;22.10;24.20;;;;;;2255742;61;20408;-68
2024/02/25 02:10:31;0.00;0.00;0.62;0.00;0.00;0.62;1.50;0.83;;;22.10;24.20;;;;;;2255390;61;20370;-68
2024/02/25 02:13:18;0.00;0.00;0.62;0.00;0.00;0.62;2.17;1.00;;;22.10;24.20;;;;;;2255412;61;20405;-68
2024/02/25 02:16:03;0.00;0.00;0.62;0.00;0.00;0.62;1.40;0.90;;;22.10;24.20;;;;;;2255653;61;20942;-68
2024/02/25 02:18:48;0.00;0.00;0.62;0.00;0.00;0.62;1.70;0.90;;;22.10;24.20;;;;;;2255486;61;20863;-68
2024/02/25 02:21:34;0.00;0.00;0.62;0.00;0.00;0.62;2.00;1.00;;;22.10;24.20;;;;;;2255854;61;20425;-68
2024/02/25 02:24:19;0.00;0.00;0.62;0.00;0.00;0.62;1.67;0.80;;;22.10;24.20;;;;;;2255159;61;20370;-68
2024/02/25 02:27:04;0.00;0.00;0.62;0.00;0.00;0.62;1.60;0.93;;;22.10;24.10;;;;;;2445366;53;20405;-68
2024/02/25 02:29:51;0.00;0.00;0.62;0.00;0.00;0.62;1.97;1.10;;;22.10;24.10;;;;;;2266812;58;20366;-68
2024/02/25 02:32:36;0.00;0.00;0.62;0.00;0.00;0.62;1.30;0.70;;;22.10;24.10;;;;;;2251695;61;20792;-68
2024/02/25 02:35:21;0.00;0.00;0.62;0.00;0.00;0.62;1.80;0.97;;;22.00;24.10;;;;;;2255680;61;20473;-68
2024/02/25 02:38:10;0.00;0.00;0.62;0.00;0.00;0.62;1.47;0.80;;;22.00;24.10;;;;;;2255166;61;20797;-68
2024/02/25 02:40:55;0.00;0.00;0.62;0.00;0.00;0.62;1.60;0.80;;;22.00;24.10;;;;;;2255014;61;20439;-68
2024/02/25 02:43:39;0.00;0.00;0.62;0.00;0.00;0.62;1.90;0.90;;;22.10;24.10;;;;;;2255877;61;20958;-68
2024/02/25 02:46:24;0.00;0.00;0.62;0.00;0.00;0.62;1.50;0.83;;;22.00;24.10;;;;;;2255108;61;20362;-68
2024/02/25 02:49:08;0.00;0.00;0.62;0.00;0.00;0.62;1.20;0.60;;;22.00;24.10;;;;;;2255800;61;20365;-68
2024/02/25 02:51:53;0.00;0.00;0.62;0.00;0.00;0.62;1.60;0.83;;;22.00;24.10;;;;;;2255689;61;20404;-68
2024/02/25 02:54:39;0.00;0.00;0.62;0.00;0.00;0.62;1.50;0.70;;;22.00;24.10;;;;;;2255325;61;20888;-68
2024/02/25 02:57:24;0.00;0.00;0.62;0.00;0.00;0.62;1.70;0.90;;;22.00;24.10;;;;;;2255779;61;20416;-69
2024/02/25 03:00:11;0.00;0.00;0.62;0.00;0.00;0.62;1.83;0.87;;;22.00;24.10;;;;;;2255539;61;20401;-68
2024/02/25 03:02:55;0.00;0.00;0.62;0.00;0.00;0.62;1.40;0.80;;;22.00;24.10;;;;;;2255374;61;20402;-68
2024/02/25 03:05:40;0.00;0.00;0.62;0.00;0.00;0.62;1.50;0.73;;;22.00;24.10;;;;;;2255681;61;20365;-69
2024/02/25 03:08:25;0.00;0.00;0.62;0.00;0.00;0.62;1.50;0.80;;;22.00;24.10;;;;;;2255090;61;20366;-68
2024/02/25 03:11:11;0.00;0.00;0.62;0.00;0.00;0.62;1.60;0.90;;;22.00;24.10;;;;;;2255624;61;20769;-67
2024/02/25 03:13:56;0.00;0.00;0.62;0.00;0.00;0.62;1.83;0.90;;;22.00;24.10;;;;;;2255583;61;20478;-67
2024/02/25 03:16:40;0.00;0.00;0.62;0.00;0.00;0.62;1.50;0.80;;;22.00;24.10;;;;;;2255013;61;20429;-68
2024/02/25 03:19:25;0.00;0.00;0.62;0.00;0.00;0.62;1.40;0.70;;;22.00;24.10;;;;;;2255604;61;20366;-68
2024/02/25 03:22:09;0.00;0.00;0.62;0.00;0.00;0.62;1.30;0.70;;;21.90;24.00;;;;;;2255277;61;20421;-67
2024/02/25 03:24:54;0.00;0.00;0.62;0.00;0.00;0.62;1.60;0.90;;;22.00;24.10;;;;;;2255192;61;20369;-67
2024/02/25 03:27:40;0.00;0.00;0.62;0.00;0.00;0.62;1.30;0.70;;;21.90;24.10;;;;;;2255371;61;20380;-67
2024/02/25 03:30:24;0.00;0.00;0.62;0.00;0.00;0.62;1.40;0.70;;;21.90;24.00;;;;;;2258919;61;20368;-67
2024/02/25 03:33:09;0.00;0.00;0.62;0.00;0.00;0.62;1.67;0.83;;;21.90;24.10;;;;;;2259272;61;20439;-68
2024/02/25 03:35:53;0.00;0.00;0.62;0.00;0.00;0.62;1.60;0.80;;;21.90;24.00;;;;;;2259572;61;20365;-68
2024/02/25 03:38:42;0.00;0.00;0.62;0.00;0.00;0.62;1.50;0.80;;;21.90;24.00;;;;;;2259022;61;20404;-68
2024/02/25 03:41:26;0.00;0.00;0.62;0.00;0.00;0.62;1.63;0.90;;;21.90;24.00;;;;;;2259038;61;20481;-67
2024/02/25 03:44:12;0.00;0.00;0.62;0.00;0.00;0.62;1.40;0.70;;;21.90;24.00;;;;;;2259209;61;20477;-67
2024/02/25 03:46:57;0.00;0.00;0.62;0.00;0.00;0.62;1.40;0.70;;;21.90;24.00;;;;;;2257723;61;20523;-68
2024/02/25 03:49:42;0.00;0.00;0.62;0.00;0.00;0.62;1.60;0.70;;;21.90;24.00;;;;;;2255470;61;20428;-67
2024/02/25 03:52:26;0.00;0.00;0.62;0.00;0.00;0.62;1.30;0.70;;;21.90;24.00;;;;;;2254376;61;20520;-68
2024/02/25 03:55:11;0.00;0.00;0.62;0.00;0.00;0.62;1.30;0.60;;;21.90;24.00;;;;;;2255328;61;20366;-68
2024/02/25 03:57:56;0.00;0.00;0.62;0.00;0.00;0.62;1.53;0.90;;;21.90;24.60;;;;;;2255348;61;20940;-68
2024/02/25 04:00:42;0.00;0.00;0.62;0.00;0.00;0.62;1.30;0.70;;;21.90;24.10;;;;;;2255004;61;20385;-68
2024/02/25 04:03:26;0.00;0.00;0.62;0.00;0.00;0.62;1.50;0.80;;;21.90;24.00;;;;;;2255456;61;20390;-67
2024/02/25 04:06:11;0.00;0.00;0.62;0.00;0.00;0.62;1.40;0.80;;;21.90;24.10;;;;;;2255002;61;20362;-69
2024/02/25 04:08:56;0.00;0.00;0.62;0.00;0.00;0.62;1.80;0.73;;;21.80;24.00;;;;;;2255182;61;20484;-68
2024/02/25 04:11:40;0.00;0.00;0.62;0.00;0.00;0.62;1.50;0.90;;;21.90;24.00;;;;;;2254556;61;20892;-67
2024/02/25 04:14:25;0.00;0.00;0.62;0.00;0.00;0.62;2.00;0.90;;;21.90;24.00;;;;;;2251003;61;20367;-67
2024/02/25 04:17:13;0.00;0.00;0.62;0.00;0.00;0.62;1.40;0.77;;;21.80;24.00;;;;;;2251164;61;20362;-67
2024/02/25 04:19:58;0.00;0.00;0.62;0.00;0.00;0.62;1.80;0.80;;;21.80;24.00;;;;;;2251467;61;20925;-67
2024/02/25 04:22:43;0.00;0.00;0.62;0.00;0.00;0.62;1.33;0.70;;;21.80;24.00;;;;;;2250889;61;20446;-67
2024/02/25 04:25:27;0.00;0.00;0.62;0.00;0.00;0.62;1.43;0.80;;;21.90;24.10;;;;;;2251349;61;20625;-68
2024/02/25 04:28:12;0.00;0.00;0.62;0.00;0.00;0.62;1.70;0.90;;;21.80;24.00;;;;;;2251454;61;20370;-67
2024/02/25 04:30:57;0.00;0.00;0.62;0.00;0.00;0.62;1.40;0.70;;;21.80;24.00;;;;;;2250880;61;20482;-68
2024/02/25 04:33:43;0.00;0.00;0.62;0.00;0.00;0.62;1.40;0.80;;;21.80;24.00;;;;;;2251336;61;20394;-67
2024/02/25 04:36:28;0.00;0.00;0.62;0.00;0.00;0.62;1.40;0.70;;;21.80;24.00;;;;;;2250779;61;20366;-67
2024/02/25 04:39:13;0.00;0.00;0.62;0.00;0.00;0.62;1.40;0.70;;;21.80;24.00;;;;;;2251271;61;20414;-67
2024/02/25 04:41:58;0.00;0.00;0.62;0.00;0.00;0.62;1.53;0.70;;;21.80;24.00;;;;;;2251157;61;20391;-67
2024/02/25 04:44:42;0.00;0.00;0.62;0.00;0.00;0.62;1.83;0.90;;;21.80;24.00;;;;;;2251004;61;20373;-68
2024/02/25 04:47:27;0.00;0.00;0.62;0.00;0.00;0.62;1.30;0.70;;;21.80;24.00;;;;;;2253293;61;20954;-67
2024/02/25 04:50:12;0.00;0.00;0.62;0.00;0.00;0.62;1.63;0.77;;;21.80;24.00;;;;;;2255136;61;20890;-68
2024/02/25 04:52:57;0.00;0.00;0.62;0.00;0.00;0.62;1.70;0.90;;;21.80;24.00;;;;;;2254742;61;20453;-67
2024/02/25 04:55:42;0.00;0.00;0.62;0.00;0.00;0.62;1.53;0.70;;;21.80;24.00;;;;;;2255689;61;20829;-67
2024/02/25 04:58:27;0.00;0.00;0.62;0.00;0.00;0.62;1.30;0.80;;;21.80;24.00;;;;;;2254949;61;20448;-67
2024/02/25 05:01:11;0.00;0.00;0.62;0.00;0.00;0.62;1.50;0.70;;;21.70;24.00;;;;;;2254776;61;20381;-67
2024/02/25 05:03:56;0.00;0.00;0.62;0.00;0.00;0.62;1.30;0.70;;;21.80;24.10;;;;;;2255346;61;20377;-67
2024/02/25 05:06:42;0.00;0.00;0.62;0.00;0.00;0.62;1.60;0.70;;;21.70;24.00;;;;;;2254702;61;20507;-68
2024/02/25 05:09:28;0.00;0.00;0.62;0.00;0.00;0.62;1.57;1.03;;;21.80;24.10;;;;;;2255191;61;20899;-69
2024/02/25 05:12:14;0.00;0.00;0.62;0.00;0.00;0.62;1.60;0.80;;;21.70;24.10;;;;;;2255289;61;20883;-69
2024/02/25 05:14:58;0.00;0.00;0.62;0.00;0.00;0.62;1.47;0.77;;;21.70;24.10;;;;;;2254756;61;20362;-68
2024/02/25 05:17:43;0.00;0.00;0.62;0.00;0.00;0.62;1.30;0.60;;;21.70;24.10;;;;;;2255925;61;20445;-69
2024/02/25 05:20:27;0.00;0.00;0.62;0.00;0.00;0.62;1.30;0.73;;;21.70;24.10;;;;;;2255790;61;20369;-69
2024/02/25 05:23:13;0.00;0.00;0.62;0.00;0.00;0.62;1.40;0.70;;;21.70;24.10;;;;;;2255641;61;20396;-68
2024/02/25 05:25:58;0.00;0.00;0.62;0.00;0.00;0.62;1.60;0.83;;;21.70;24.10;;;;;;2255431;61;20373;-68
2024/02/25 05:28:43;0.00;0.00;0.62;0.00;0.00;0.62;1.43;0.70;;;21.70;24.10;;;;;;2255650;61;20449;-68
2024/02/25 05:31:27;0.00;0.00;0.62;0.00;0.00;0.62;1.37;0.77;;;21.70;24.20;;;;;;2255894;61;20413;-69
2024/02/25 05:34:12;0.00;0.00;0.62;0.00;0.00;0.62;1.40;0.70;;;21.70;24.20;;;;;;2256116;61;20478;-68
2024/02/25 05:36:56;0.00;0.00;0.62;0.00;0.00;0.62;1.37;0.60;;;21.70;24.20;;;;;;2255387;61;20362;-69
2024/02/25 05:39:42;0.00;0.00;0.62;0.00;0.00;0.62;1.50;0.77;;;21.70;24.10;;;;;;2256014;61;20768;-68
2024/02/25 05:42:27;0.00;0.00;0.62;0.00;0.00;0.62;1.70;0.80;;;21.70;24.10;;;;;;2255558;61;20409;-69
2024/02/25 05:45:11;0.00;0.00;0.62;0.00;0.00;0.62;1.60;1.00;;;21.70;24.20;;;;;;2255634;61;20424;-68
2024/02/25 05:47:56;0.00;0.00;0.62;0.00;0.00;0.62;1.50;0.80;;;21.70;24.10;;;;;;2255761;61;20369;-68
2024/02/25 05:50:41;0.00;0.00;0.62;0.00;0.00;0.62;1.30;0.70;;;21.70;24.10;;;;;;2255372;61;20809;-68
2024/02/25 05:53:25;0.00;0.00;0.62;0.00;0.00;0.62;1.30;0.63;;;21.70;24.20;;;;;;2255578;61;20392;-68
2024/02/25 05:56:11;0.00;0.00;0.62;0.00;0.00;0.62;1.30;0.70;;;21.70;24.20;;;;;;2255933;61;20512;-69
2024/02/25 05:58:56;0.00;0.00;0.62;0.00;0.00;0.62;1.40;0.80;;;21.70;24.20;;;;;;2255255;61;20381;-68
2024/02/25 06:01:47;0.00;0.00;0.62;0.00;0.00;0.62;1.40;0.70;;;21.70;24.20;;;;;;2255899;61;20390;-68
2024/02/25 06:04:35;0.00;0.00;0.62;0.00;0.00;0.62;1.30;0.70;;;21.70;24.20;;;;;;2255778;61;20508;-70
2024/02/25 06:07:23;0.00;0.00;0.62;0.00;0.00;0.62;1.47;0.73;;;21.70;24.20;;;;;;2255254;61;20373;-68
2024/02/25 06:10:09;0.00;0.00;0.62;0.00;0.00;0.62;1.50;0.70;;;21.70;24.20;;;;;;2255753;61;20405;-69
2024/02/25 06:12:55;0.00;0.00;0.62;0.00;0.00;0.62;1.50;0.80;;;21.70;24.20;;;;;;2255353;61;20443;-68
2024/02/25 06:15:40;0.00;0.00;0.62;0.00;0.00;0.62;1.70;0.80;;;21.70;24.20;;;;;;2255563;61;20428;-68
2024/02/25 06:18:24;0.00;0.00;0.62;0.00;0.00;0.62;1.40;0.70;;;21.70;24.20;;;;;;2255803;61;20370;-69
2024/02/25 06:21:09;0.00;0.00;0.62;0.00;0.00;0.62;1.70;0.80;;;21.70;24.20;;;;;;2255300;61;20366;-69
2024/02/25 06:23:53;0.00;0.00;0.62;0.00;0.00;0.62;1.57;0.80;;;21.60;24.10;;;;;;2255677;61;20432;-69
2024/02/25 06:26:42;0.00;0.00;0.62;0.00;0.00;0.62;1.40;0.80;;;21.60;24.10;;;;;;2255736;61;20454;-69
2024/02/25 06:29:28;0.00;0.00;0.62;0.00;0.00;0.62;1.40;0.80;;;21.70;24.20;;;;;;2254995;61;20374;-69
2024/02/25 06:32:12;0.00;0.00;0.62;0.00;0.00;0.62;1.30;0.70;;;21.70;24.20;;;;;;2255580;61;20366;-69
2024/02/25 06:34:58;0.00;0.00;0.62;0.00;0.00;0.62;1.30;0.70;;;21.70;24.20;;;;;;2255111;61;20883;-68
2024/02/25 06:37:42;0.00;0.00;0.62;0.00;0.00;0.62;1.43;0.70;;;21.70;24.20;;;;;;2255481;61;20973;-68
2024/02/25 06:40:27;0.00;0.00;0.62;0.00;0.00;0.62;1.80;0.90;;;21.60;24.10;;;;;;2255854;61;20424;-69
2024/02/25 06:43:12;0.00;0.00;0.62;0.00;0.00;0.62;1.70;1.00;;;21.60;24.10;;;;;;2255210;61;20512;-68
2024/02/25 06:46:02;0.00;0.00;0.62;0.00;0.00;0.62;1.60;0.80;;;21.60;24.10;;;;;;2255372;61;20420;-69
2024/02/25 06:48:47;0.00;0.00;0.62;0.00;0.00;0.62;1.40;0.70;;;21.60;24.10;;;;;;2486344;53;20453;-68
2024/02/25 06:51:32;0.00;0.00;0.62;0.00;0.00;0.62;1.90;0.77;;;21.60;24.10;;;;;;2251507;61;20835;-68
2024/02/25 06:54:16;0.00;0.00;0.62;0.00;0.00;0.62;1.20;0.60;;;21.60;24.20;;;;;;2251688;61;20398;-68
2024/02/25 06:57:02;0.00;0.00;0.62;0.00;0.00;0.62;1.80;0.70;;;21.60;24.10;;;;;;2251270;61;20367;-68
2024/02/25 06:59:47;0.00;0.00;0.62;0.00;0.00;0.62;1.67;0.90;;;21.60;24.20;;;;;;2251576;61;20370;-68
2024/02/25 07:02:33;0.00;0.00;0.62;0.00;0.00;0.62;1.50;0.80;;;21.60;24.20;;;;;;2251732;61;20931;-68
2024/02/25 07:05:17;0.00;0.00;0.62;0.00;0.00;0.62;1.47;0.80;;;21.60;24.20;;;;;;2252386;61;20428;-69
2024/02/25 07:08:03;0.00;0.00;0.62;0.00;0.00;0.62;1.50;0.70;;;21.60;24.20;;;;;;2255650;61;20412;-67
2024/02/25 07:10:50;0.00;0.00;0.62;0.00;0.00;0.62;1.40;0.60;;;21.60;24.20;;;;;;2255592;61;20417;-68
2024/02/25 07:13:34;0.00;0.00;0.62;0.00;0.00;0.62;1.40;0.80;;;21.60;24.20;;;;;;2549068;45;20950;-69
2024/02/25 07:16:19;0.00;0.00;0.62;0.00;0.00;0.62;1.40;0.70;;;21.60;24.30;;;;;;2251574;61;20920;-69
2024/02/25 07:19:05;0.00;0.00;0.62;0.00;0.00;0.62;1.60;0.90;;;21.60;24.30;;;;;;2251520;61;20366;-67
2024/02/25 07:21:50;0.00;0.00;0.62;0.00;0.00;0.62;1.80;0.93;;;21.60;24.30;;;;;;2251334;61;20394;-69
2024/02/25 07:24:35;0.00;0.00;0.62;0.00;0.00;0.62;1.80;1.20;;;21.60;24.20;;;;;;2251544;61;20928;-69
2024/02/25 07:27:19;0.00;0.00;0.62;0.00;0.00;0.62;3.03;1.50;;;21.60;24.30;;;;;;2250887;61;20785;-69
2024/02/25 07:30:05;0.00;0.00;0.62;0.00;0.00;0.62;2.30;1.37;;;21.60;24.20;;;;;;2251589;61;20418;-69
2024/02/25 07:32:50;0.00;0.00;0.62;0.00;0.00;0.62;2.40;1.60;;;21.60;24.20;;;;;;2251266;61;20383;-68
2024/02/25 07:35:36;0.00;0.00;0.62;0.00;0.00;0.62;2.17;1.40;;;21.60;24.20;;;;;;2251105;61;20362;-68
2024/02/25 07:38:21;0.00;0.00;0.62;0.00;0.00;0.62;2.30;1.43;;;21.60;24.20;;;;;;2251579;61;20794;-69
2024/02/25 07:41:06;0.00;0.00;0.62;0.00;0.00;0.62;2.60;1.30;;;21.60;24.30;;;;;;2251299;61;20951;-68
2024/02/25 07:43:50;0.00;0.00;0.62;0.00;0.00;0.62;2.23;1.53;;;21.60;24.20;;;;;;2250832;61;20382;-69
2024/02/25 07:46:35;0.00;0.00;0.62;0.00;0.00;0.62;3.07;1.83;;;21.60;24.20;;;;;;2251590;61;20772;-69
2024/02/25 07:49:19;0.00;0.00;0.62;0.00;0.00;0.62;2.97;2.10;;;21.60;24.20;;;;;;2254950;61;20780;-69
2024/02/25 07:52:09;0.00;0.00;0.62;0.00;0.00;0.62;2.73;1.60;;;21.60;24.20;;;;;;2255422;61;20362;-69
2024/02/25 07:54:54;0.00;0.00;0.62;0.00;0.00;0.62;2.40;1.60;;;21.60;24.20;;;;;;2255429;61;20434;-69
2024/02/25 07:57:38;0.00;0.00;0.62;0.00;0.00;0.62;1.83;1.23;;;21.60;24.30;;;;;;2254455;61;20382;-69
2024/02/25 08:00:23;0.00;0.00;0.62;0.00;0.00;0.62;3.60;2.20;;;21.60;24.20;;;;;;2255801;61;20747;-69
2024/02/25 08:03:08;0.00;0.00;0.62;0.00;0.00;0.62;3.40;2.50;;;21.60;24.20;;;;;;2255071;61;20425;-69
2024/02/25 08:05:52;0.00;0.00;0.62;0.00;0.00;0.62;2.83;2.20;;;21.60;24.20;;;;;;2255032;61;20918;-69
2024/02/25 08:08:38;0.00;0.00;0.62;0.00;0.00;0.62;3.33;2.80;;;21.60;24.30;;;;;;2255552;61;20366;-68
2024/02/25 08:11:23;0.00;0.00;0.62;0.00;0.00;0.62;3.97;3.07;;;21.60;24.20;;;;;;2255126;61;20863;-69
2024/02/25 08:14:07;0.00;0.00;0.62;0.00;0.00;0.62;4.00;2.83;;;21.60;24.20;;;;;;2255738;61;20413;-69
2024/02/25 08:16:52;0.00;0.00;0.62;0.00;0.00;0.62;4.13;3.17;;;21.60;24.20;;;;;;2255424;61;20903;-69
2024/02/25 08:19:38;0.00;0.00;0.62;0.00;0.00;0.62;4.87;3.60;;;21.60;24.30;;;;;;2255110;61;20405;-69
2024/02/25 08:22:23;0.00;0.00;0.62;0.00;0.00;0.62;6.93;4.57;;;21.60;24.20;;;;;;2255391;61;20394;-69
2024/02/25 08:25:10;0.00;0.00;0.62;0.00;0.00;0.62;4.53;3.67;;;21.60;24.20;;;;;;2255429;61;20373;-69
2024/02/25 08:27:55;0.00;0.00;0.62;0.00;0.00;0.62;4.27;3.23;;;21.60;24.20;;;;;;2255254;61;20369;-69
2024/02/25 08:30:39;0.00;0.00;0.62;0.00;0.00;0.62;4.47;3.70;;;21.60;24.20;;;;;;2254962;61;20421;-69
2024/02/25 08:33:24;0.00;0.00;0.62;0.00;0.00;0.62;5.10;3.63;;;21.60;24.20;;;;;;2255031;61;20784;-69
2024/02/25 08:36:09;0.00;0.00;0.62;0.00;0.00;0.62;5.07;3.80;;;21.60;24.20;;;;;;2255288;61;20454;-69
2024/02/25 08:38:53;0.00;0.00;0.62;0.00;0.00;0.62;4.90;3.43;;;21.60;24.20;;;;;;2255493;61;20441;-69
2024/02/25 08:41:39;0.00;0.00;0.62;0.00;0.00;0.62;4.93;3.77;;;21.60;24.20;;;;;;2255059;61;20377;-69
2024/02/25 08:44:24;0.00;0.00;0.62;0.00;0.00;0.62;4.77;3.53;;;21.60;24.20;;;;;;2255331;61;20412;-69
2024/02/25 08:47:08;0.00;0.00;0.62;0.00;0.00;0.62;5.27;4.00;;;21.60;24.10;;;;;;2255201;61;20428;-70
2024/02/25 08:49:53;0.00;0.00;0.62;0.00;0.00;0.62;5.30;3.70;;;21.60;24.10;;;;;;2254913;61;20362;-69
2024/02/25 08:52:37;0.00;0.00;0.62;0.00;0.00;0.62;4.33;3.60;;;21.60;24.10;;;;;;2255265;61;20544;-69
2024/02/25 08:55:22;0.00;0.00;0.62;0.00;0.00;0.62;4.90;4.13;;;21.60;24.10;;;;;;2255066;61;20918;-69
2024/02/25 08:58:08;0.00;0.00;0.62;0.00;0.00;0.62;5.83;4.00;;;21.60;24.10;;;;;;2257025;61;20369;-69
2024/02/25 09:00:53;0.00;0.00;0.62;0.00;0.00;0.62;5.43;3.90;;;21.70;24.20;;;;;;2256914;61;20420;-69
2024/02/25 09:03:38;0.00;0.00;0.62;0.00;0.00;0.62;5.63;3.67;;;21.70;24.20;;;;;;2257349;61;20393;-69
2024/02/25 09:06:22;0.00;0.00;0.62;0.00;0.00;0.62;4.77;3.30;;;21.60;24.10;;;;;;2257073;61;20349;-69
2024/02/25 09:09:07;0.00;0.00;0.62;0.00;0.00;0.62;5.17;3.60;;;21.70;24.20;;;;;;2257663;61;20361;-69
2024/02/25 09:11:51;0.00;0.00;0.62;0.00;0.00;0.62;6.50;4.37;;;21.70;24.20;;;;;;2257524;61;20357;-69
2024/02/25 09:14:37;0.00;0.00;0.62;0.00;0.00;0.62;5.10;3.67;;;21.70;24.20;;;;;;2257512;61;20388;-69
2024/02/25 09:17:22;0.00;0.00;0.62;0.00;0.00;0.62;4.87;4.00;;;21.70;24.20;;;;;;2257162;61;20351;-69
2024/02/25 09:20:09;0.00;0.00;0.62;0.00;0.00;0.62;5.67;4.40;;;21.70;24.20;;;;;;2257703;61;20409;-69
2024/02/25 09:22:54;0.00;0.00;0.62;0.00;0.00;0.62;6.10;4.63;;;21.70;24.20;;;;;;2257501;61;20937;-69
2024/02/25 09:25:38;0.00;0.00;0.62;0.00;0.00;0.62;6.47;4.27;;;21.70;24.20;;;;;;2257351;61;20358;-69
2024/02/25 09:28:23;0.00;0.00;0.62;0.00;0.00;0.62;3.97;3.33;;;21.70;24.20;;;;;;2257634;61;20462;-69
2024/02/25 09:31:12;0.00;0.00;0.62;0.00;0.00;0.62;6.50;3.87;;;21.70;24.20;;;;;;2257831;61;20962;-69
2024/02/25 09:33:58;0.00;0.00;0.62;0.00;0.00;0.62;3.40;2.63;;;21.70;24.20;;;;;;2257410;61;20923;-69
2024/02/25 09:36:44;0.00;0.00;0.62;0.00;0.00;0.62;3.93;3.13;;;21.70;24.10;;;;;;2257563;61;20382;-69
2024/02/25 09:39:28;0.00;0.00;0.62;0.00;0.00;0.62;6.00;4.47;;;21.70;24.10;;;;;;2256885;61;20430;-69
2024/02/25 09:42:13;0.00;0.00;0.62;0.00;0.00;0.62;4.60;3.70;;;21.70;24.10;;;;;;2257478;61;20394;-69
2024/02/25 09:44:57;0.00;0.00;0.62;0.00;0.00;0.62;5.70;4.90;;;21.70;24.10;;;;;;2257602;61;20350;-69
2024/02/25 09:47:44;0.00;0.00;0.62;0.00;0.00;0.62;4.40;3.77;;;21.80;24.20;;;;;;2257320;61;20370;-69
2024/02/25 09:50:30;0.00;0.00;0.62;0.00;0.00;0.62;5.73;4.00;;;21.70;24.10;;;;;;2257916;61;20556;-69
2024/02/25 09:53:15;0.00;0.00;0.62;0.00;0.00;0.62;5.53;3.87;;;21.70;24.10;;;;;;2257456;61;20394;-69
2024/02/25 09:56:00;0.00;0.00;0.62;0.00;0.00;0.62;4.77;3.80;;;21.70;24.10;;;;;;2257354;61;20454;-69
2024/02/25 09:58:45;0.00;0.00;0.62;0.00;0.00;0.62;5.00;3.60;;;21.80;24.20;;;;;;2257150;61;20401;-69
2024/02/25 10:01:31;0.00;0.00;0.62;0.00;0.00;0.62;4.80;3.33;;;21.80;24.10;;;;;;2256335;61;20837;-69
2024/02/25 10:04:18;0.00;0.00;0.62;0.00;0.00;0.62;5.50;3.50;;;21.80;24.00;;;;;;2256928;61;20448;-69
2024/02/25 10:07:03;0.00;0.00;0.62;0.00;0.00;0.62;4.87;3.93;;;21.80;24.00;;;;;;2257122;61;20816;-69
2024/02/25 10:09:49;0.00;0.00;0.62;0.00;0.00;0.62;5.43;4.33;;;21.80;24.00;;;;;;2257786;61;21029;-69
2024/02/25 10:12:39;0.00;0.00;0.62;0.00;0.00;0.62;6.63;3.87;;;21.80;24.00;;;;;;2257529;61;20394;-69
2024/02/25 10:15:24;0.00;0.00;0.62;0.00;0.00;0.62;5.03;3.50;;;21.80;24.00;;;;;;2257625;61;20373;-69
2024/02/25 10:18:11;0.00;0.00;0.62;0.00;0.00;0.62;4.93;3.60;;;21.80;24.10;;;;;;2257409;61;20401;-69
2024/02/25 10:21:02;0.00;0.00;0.62;0.00;0.00;0.62;4.97;3.77;;;21.80;24.10;;;;;;2257719;61;20405;-69
2024/02/25 10:23:53;0.00;0.00;0.62;0.00;0.00;0.62;6.93;4.00;;;21.80;24.10;;;;;;2257600;61;20404;-69
2024/02/25 10:26:37;0.00;0.00;0.62;0.00;0.00;0.62;5.90;4.30;;;21.80;24.20;;;;;;2257585;61;20930;-69
2024/02/25 10:29:22;0.00;0.00;0.62;0.00;0.00;0.62;6.63;4.40;;;21.80;24.80;;;;;;2257484;61;20459;-69
2024/02/25 10:32:08;0.00;0.00;0.62;0.00;0.00;0.62;6.50;4.37;;;21.80;24.30;;;;;;2257363;61;20385;-69
2024/02/25 10:34:59;0.00;0.00;0.62;0.00;0.00;0.62;5.57;4.03;;;21.80;24.30;;;;;;2256872;61;20358;-69
2024/02/25 10:37:46;0.00;0.00;0.62;0.00;0.00;0.62;5.43;4.60;;;21.90;24.90;;;;;;2257496;61;20401;-69
2024/02/25 10:40:31;0.00;0.00;0.62;0.00;0.00;0.62;5.23;3.90;;;21.80;24.30;;;;;;2257193;61;20354;-69
2024/02/25 10:43:19;0.00;0.00;0.62;0.00;0.00;0.62;5.63;4.47;;;21.80;24.40;;;;;;2256836;61;20433;-69
2024/02/25 10:46:14;0.00;0.00;0.62;0.00;0.00;0.62;5.70;4.00;;;21.90;24.50;;;;;;2256859;61;20400;-68
2024/02/25 10:49:02;0.00;0.00;0.62;0.00;0.00;0.62;5.67;3.97;;;21.90;24.50;;;;;;2252852;61;20439;-69
2024/02/25 10:51:51;0.00;0.00;0.62;0.00;0.00;0.62;7.93;5.37;;;21.90;24.50;;;;;;2252291;61;20344;-70